KRKS/RKS METAR and TAF weather

Enter ICAO airport designator
Station Type Date Time Source
KRKS METAR 2021/04/13 05:54 UTC NOAA

KRKS 130554Z AUTO 06024G34KT 10SM CLR M05/M14 A3014 RMK AO2 PK WND 07036/0531 SLP233 T10501144 10033 21050 51007


Station Type Date Time Source
KRKS Decoded METAR 2021/04/13 05:54 UTC NOAA

ROCK SPRINGS-SWEETWATER CO, WY, United States (KRKS) 41-36N 109-03W
Apr 13, 2021 - 01:54 AM EDT / 2021.04.13 0554 UTC
Wind: from the ENE (060 degrees) at 28 MPH (24 KT) gusting to 39 MPH (34 KT):0
Visibility: 10 mile(s):0
Sky conditions: clear
Temperature: 23.0 F (-5.0 C)
Windchill: 5 F (-15 C):1
Dew Point: 6.1 F (-14.4 C)
Relative Humidity: 47%
Pressure (altimeter): 30.14 in. Hg (1020 hPa)
Pressure tendency: 0.02 inches (0.7 hPa) higher than three hours ago
ob: KRKS 130554Z AUTO 06024G34KT 10SM CLR M05/M14 A3014 RMK AO2 PK WND 07036/0531 SLP233 T10501144 10033 21050 51007
cycle: 6

Station Type Date Time Source
KRKS TAF 2021/04/13 06:24 UTC NOAA

TAF KRKS 130522Z 1306/1406 07020G30KT P6SM FEW070
FM140300 07027G38KT P6SM VCSH BKN060

Example: see airport list